Time;durP1;ratioP1;P1;durP2;ratioP2;P2;SDS_P1;SDS_P2;PMS_P1;PMS_P2;Temp;Humidity;BMP_temperature;BMP_pressure;BME280_temperature;BME280_humidity;BME280_pressure;Samples;Min_cycle;Max_cycle;Signal;HPM_P1;HPM_P2
2022/08/06 00:00:44;;;;;;;3.10;1.90;;;;;;;11.70;72.59;102476.81;5039973;28;20041;-67
2022/08/06 00:03:09;;;;;;;5.60;1.50;;;;;;;11.64;71.91;102479.84;5026125;28;20038;-67
2022/08/06 00:05:35;;;;;;;4.15;1.30;;;;;;;11.62;71.80;102479.06;5038682;28;20085;-67
2022/08/06 00:08:00;;;;;;;6.53;1.63;;;;;;;11.59;71.55;102487.38;5042254;28;20028;-67
2022/08/06 00:10:26;;;;;;;2.08;1.05;;;;;;;11.55;71.79;102479.44;5045902;28;20531;-67
2022/08/06 00:12:52;;;;;;;2.33;1.48;;;;;;;11.50;71.98;102488.72;5043505;28;20029;-67
2022/08/06 00:15:18;;;;;;;2.17;1.45;;;;;;;11.46;71.89;102488.94;5038585;28;20032;-67
2022/08/06 00:17:45;;;;;;;3.20;1.83;;;;;;;11.41;72.19;102480.13;5025318;28;20026;-66
2022/08/06 00:20:15;;;;;;;3.50;1.65;;;;;;;11.37;72.61;102487.56;5033721;28;20035;-66
2022/08/06 00:22:41;;;;;;;3.58;1.48;;;;;;;11.32;72.52;102489.63;5045430;28;20476;-66
2022/08/06 00:25:07;;;;;;;4.63;1.70;;;;;;;11.27;72.70;102493.53;5042472;28;20036;-70
2022/08/06 00:27:33;;;;;;;3.95;1.92;;;;;;;11.26;73.38;102494.50;5026312;28;20046;-66
2022/08/06 00:29:59;;;;;;;5.05;2.20;;;;;;;11.17;73.45;102490.38;5032914;28;20039;-66
2022/08/06 00:32:24;;;;;;;5.53;1.85;;;;;;;11.17;74.00;102502.16;5025629;28;20041;-66
2022/08/06 00:34:50;;;;;;;5.80;2.17;;;;;;;11.16;74.13;102497.69;5044981;28;20048;-66
2022/08/06 00:37:15;;;;;;;4.95;1.77;;;;;;;11.18;73.62;102506.63;5031294;28;20045;-68
2022/08/06 00:39:41;;;;;;;4.18;2.15;;;;;;;11.17;74.02;102510.34;5025147;28;20045;-66
2022/08/06 00:42:07;;;;;;;6.18;1.85;;;;;;;11.16;73.50;102505.84;5033184;28;20037;-70
2022/08/06 00:44:32;;;;;;;5.53;1.88;;;;;;;11.17;73.27;102515.78;5043094;28;20078;-66
2022/08/06 00:46:58;;;;;;;3.78;1.98;;;;;;;11.14;73.82;102507.75;5029110;28;20417;-68
2022/08/06 00:49:24;;;;;;;4.78;1.77;;;;;;;11.12;73.43;102508.78;5034291;28;20059;-66
2022/08/06 00:51:49;;;;;;;4.07;2.50;;;;;;;11.12;73.28;102514.25;5044133;28;20049;-67
2022/08/06 00:54:14;;;;;;;5.20;2.00;;;;;;;11.12;73.21;102500.63;5036899;28;20461;-65
2022/08/06 00:56:40;;;;;;;3.95;1.98;;;;;;;11.09;73.53;102509.81;5041259;28;20017;-67
2022/08/06 00:59:05;;;;;;;6.10;1.85;;;;;;;11.10;73.92;102513.44;5025797;28;20060;-67
2022/08/06 01:01:31;;;;;;;6.82;2.03;;;;;;;11.11;73.46;102528.81;5024554;28;20037;-66
2022/08/06 01:03:57;;;;;;;4.05;2.05;;;;;;;11.10;73.88;102524.34;5025328;28;20073;-66
2022/08/06 01:06:22;;;;;;;3.10;1.90;;;;;;;11.09;73.58;102528.00;5025524;28;20376;-66
2022/08/06 01:08:48;;;;;;;4.72;2.22;;;;;;;11.09;73.80;102528.00;5044826;28;20025;-66
2022/08/06 01:11:13;;;;;;;3.08;1.67;;;;;;;11.11;73.86;102534.28;5031284;28;20040;-66
2022/08/06 01:13:39;;;;;;;3.88;2.38;;;;;;;11.09;73.73;102534.31;5040547;28;20025;-67
2022/08/06 01:16:24;;;;;;;2.42;1.90;;;;;;;11.07;74.30;102538.97;5036771;28;20044;-66
2022/08/06 01:19:29;;;;;;;5.63;2.10;;;;;;;11.08;73.66;102543.47;5025272;28;20631;-67
2022/08/06 01:22:26;;;;;;;4.32;1.90;;;;;;;11.05;73.80;102540.91;5024417;28;20523;-67
2022/08/06 01:25:10;;;;;;;2.95;2.25;;;;;;;10.97;74.97;102541.25;5023138;28;20044;-66
2022/08/06 01:28:07;;;;;;;5.72;2.17;;;;;;;10.95;73.88;102536.81;5028854;28;20042;-66
2022/08/06 01:30:37;;;;;;;3.03;1.80;;;;;;;10.92;73.88;102547.88;5029988;28;20045;-68
2022/08/06 01:33:16;;;;;;;5.05;2.22;;;;;;;10.90;73.56;102545.19;5029612;28;20046;-66
2022/08/06 01:35:47;;;;;;;5.55;2.30;;;;;;;10.85;75.00;102549.09;5028543;28;20083;-67
2022/08/06 01:38:29;;;;;;;5.10;2.33;;;;;;;10.85;74.54;102551.81;5028610;28;20041;-67
2022/08/06 01:41:00;;;;;;;3.92;2.20;;;;;;;10.81;75.07;102553.78;5044428;28;20484;-66
2022/08/06 01:43:27;;;;;;;5.47;2.60;;;;;;;10.81;74.70;102550.19;5043368;28;20065;-67
2022/08/06 01:45:55;;;;;;;6.10;1.92;;;;;;;10.79;75.90;102542.09;5040630;28;20052;-67
2022/08/06 01:48:25;;;;;;;3.97;2.10;;;;;;;10.77;74.84;102552.19;5030876;28;20103;-66
2022/08/06 01:50:54;;;;;;;3.55;2.70;;;;;;;10.79;74.90;102546.66;5042849;28;20049;-67
2022/08/06 01:53:32;;;;;;;5.13;1.85;;;;;;;10.80;75.06;102551.16;5028259;28;20025;-65
2022/08/06 01:56:00;;;;;;;7.28;2.15;;;;;;;10.80;75.17;102548.44;5043609;28;20135;-66
2022/08/06 01:58:34;;;;;;;4.50;2.20;;;;;;;10.78;75.88;102550.34;5041749;28;20030;-65
2022/08/06 02:01:03;;;;;;;6.22;2.33;;;;;;;10.75;75.36;102545.03;5027453;28;20473;-68
2022/08/06 02:03:35;;;;;;;3.03;1.83;;;;;;;10.76;74.74;102544.06;5030891;28;20346;-66
2022/08/06 02:06:01;;;;;;;4.65;1.88;;;;;;;10.72;74.53;102544.25;5042811;28;20497;-68
2022/08/06 02:08:31;;;;;;;4.05;2.03;;;;;;;10.71;74.76;102538.84;5028148;28;20072;-66
2022/08/06 02:11:00;;;;;;;4.55;2.22;;;;;;;10.69;75.38;102541.66;5046895;28;20476;-67
2022/08/06 02:13:29;;;;;;;2.92;2.00;;;;;;;10.66;75.99;102552.66;5043274;28;20452;-67
2022/08/06 02:15:55;;;;;;;3.53;1.88;;;;;;;10.67;75.76;102546.25;5027200;28;20041;-66
2022/08/06 02:18:23;;;;;;;8.10;2.30;;;;;;;10.65;75.39;102550.91;5042183;28;20037;-67
2022/08/06 02:20:52;;;;;;;4.45;2.17;;;;;;;10.64;75.08;102553.69;5027532;28;20049;-67
2022/08/06 02:23:22;;;;;;;6.95;2.38;;;;;;;10.58;75.51;102554.84;5039800;28;20045;-66
2022/08/06 02:25:51;;;;;;;4.30;2.60;;;;;;;10.52;75.46;102560.56;5028134;28;20042;-66
2022/08/06 02:28:19;;;;;;;5.03;1.95;;;;;;;10.43;75.66;102561.84;5028067;28;20037;-67
2022/08/06 02:30:47;;;;;;;3.05;1.95;;;;;;;10.38;75.42;102554.84;5040906;28;20446;-67
2022/08/06 02:33:13;;;;;;;3.30;2.00;;;;;;;10.30;75.83;102555.19;5027662;28;20033;-66
2022/08/06 02:35:49;;;;;;;2.17;1.90;;;;;;;10.26;75.72;102555.38;5040038;28;20079;-68
2022/08/06 02:38:26;;;;;;;5.07;2.80;;;;;;;10.20;75.79;102557.38;5046886;28;20055;-66
2022/08/06 02:41:04;;;;;;;4.43;2.25;;;;;;;10.15;76.41;102558.53;5027991;28;20567;-65
2022/08/06 02:43:40;;;;;;;4.57;2.00;;;;;;;10.13;75.26;102550.47;5028231;28;20508;-67
2022/08/06 02:46:16;;;;;;;5.72;1.80;;;;;;;10.12;75.06;102547.81;5039412;28;20536;-67
2022/08/06 02:48:52;;;;;;;2.60;1.95;;;;;;;10.12;75.74;102555.97;5027284;28;20123;-66
2022/08/06 02:51:23;;;;;;;2.78;2.00;;;;;;;10.08;76.54;102552.50;5041805;28;20037;-66
2022/08/06 02:53:58;;;;;;;7.75;1.80;;;;;;;10.04;75.79;102553.56;5031410;28;20037;-66
2022/08/06 02:56:25;;;;;;;4.20;1.80;;;;;;;10.01;76.04;102560.97;5043585;28;20056;-67
2022/08/06 02:58:53;;;;;;;2.20;1.83;;;;;;;9.97;76.27;102558.38;5027184;28;20097;-68
2022/08/06 03:01:23;;;;;;;5.45;1.75;;;;;;;9.93;76.19;102561.28;5049859;28;20040;-67
2022/08/06 03:03:51;;;;;;;3.17;1.80;;;;;;;9.90;75.77;102564.16;5045874;28;20091;-68
2022/08/06 03:06:19;;;;;;;3.97;1.67;;;;;;;9.84;76.47;102559.88;5046287;28;20075;-66
2022/08/06 03:08:45;;;;;;;4.45;1.92;;;;;;;9.81;76.31;102564.53;5031193;28;20053;-67
2022/08/06 03:11:13;;;;;;;4.15;2.00;;;;;;;9.81;76.09;102567.25;5027011;28;20822;-67
2022/08/06 03:13:41;;;;;;;3.65;2.17;;;;;;;9.79;76.35;102570.06;5030002;28;20049;-66
2022/08/06 03:16:07;;;;;;;3.53;2.17;;;;;;;9.79;75.78;102564.63;5038337;28;20037;-68
2022/08/06 03:18:34;;;;;;;4.40;2.47;;;;;;;9.79;76.07;102571.84;5030409;28;21806;-67
2022/08/06 03:21:02;;;;;;;6.75;2.58;;;;;;;9.76;76.06;102564.72;5042656;28;20032;-66
2022/08/06 03:23:29;;;;;;;4.68;2.30;;;;;;;9.74;76.30;102561.19;5027007;28;20053;-65
2022/08/06 03:25:56;;;;;;;4.10;2.30;;;;;;;9.72;76.30;102560.38;5040614;28;20078;-66
2022/08/06 03:28:23;;;;;;;3.45;2.40;;;;;;;9.69;75.76;102572.22;5031185;28;20057;-67
2022/08/06 03:30:50;;;;;;;3.70;1.95;;;;;;;9.69;75.61;102569.50;5027665;28;20124;-66
2022/08/06 03:33:16;;;;;;;3.20;1.95;;;;;;;9.65;75.69;102567.00;5026391;28;20552;-67
2022/08/06 03:35:43;;;;;;;3.53;2.20;;;;;;;9.58;76.13;102569.09;5026100;28;20041;-69
2022/08/06 03:38:10;;;;;;;3.30;1.90;;;;;;;9.58;76.18;102574.53;5041514;28;20043;-66
2022/08/06 03:40:38;;;;;;;3.45;2.05;;;;;;;9.59;76.27;102583.56;5047157;28;20040;-67
2022/08/06 03:43:04;;;;;;;2.17;1.88;;;;;;;9.57;76.46;102585.47;5014410;28;20033;-66
2022/08/06 03:45:32;;;;;;;5.03;2.10;;;;;;;9.55;76.30;102579.19;5039661;28;20071;-67
2022/08/06 03:48:01;;;;;;;3.90;2.05;;;;;;;9.53;76.71;102581.97;5026123;28;20103;-66
2022/08/06 03:50:32;;;;;;;7.45;2.33;;;;;;;9.50;76.04;102579.38;5044170;28;20517;-67
2022/08/06 03:53:04;;;;;;;5.53;2.00;;;;;;;9.49;76.66;102588.47;5044770;28;20406;-67
2022/08/06 03:55:33;;;;;;;2.60;2.40;;;;;;;9.50;77.09;102583.91;5025085;28;20033;-67
2022/08/06 03:58:02;;;;;;;5.53;2.38;;;;;;;9.47;77.05;102589.50;5025683;28;20048;-67
2022/08/06 04:00:33;;;;;;;3.47;2.17;;;;;;;9.46;77.16;102594.00;5023982;28;20164;-67
2022/08/06 04:02:59;;;;;;;2.10;1.75;;;;;;;9.43;76.02;102595.03;5026925;28;20055;-68
2022/08/06 04:05:27;;;;;;;3.40;2.20;;;;;;;9.40;76.74;102597.88;5026029;28;20034;-67
2022/08/06 04:07:55;;;;;;;3.63;2.20;;;;;;;9.40;76.96;102606.00;5025474;28;20041;-66
2022/08/06 04:10:24;;;;;;;6.70;2.33;;;;;;;9.38;76.95;102607.03;5041708;28;20067;-68
2022/08/06 04:12:50;;;;;;;4.00;1.98;;;;;;;9.32;77.40;102600.00;5046098;28;20472;-66
2022/08/06 04:15:16;;;;;;;11.27;2.70;;;;;;;9.34;77.30;102602.66;5040253;28;20044;-67
2022/08/06 04:17:44;;;;;;;7.28;2.80;;;;;;;9.31;77.89;102605.50;5025029;28;20103;-67
2022/08/06 04:20:13;;;;;;;2.42;2.08;;;;;;;9.33;77.81;102604.50;5025225;28;20389;-66
2022/08/06 04:22:39;;;;;;;3.55;2.03;;;;;;;9.34;77.84;102603.56;5025117;28;20081;-67
2022/08/06 04:25:05;;;;;;;4.43;2.13;;;;;;;9.38;77.13;102618.78;5041023;28;20029;-66
2022/08/06 04:27:31;;;;;;;6.50;2.13;;;;;;;9.42;77.52;102620.44;5036045;28;20102;-66
2022/08/06 04:29:59;;;;;;;2.80;2.00;;;;;;;9.43;77.33;102618.59;5039998;28;20342;-67
2022/08/06 04:32:26;;;;;;;2.80;2.15;;;;;;;9.41;77.68;102621.38;5024829;28;20072;-66
2022/08/06 04:34:52;;;;;;;7.30;1.90;;;;;;;9.40;77.46;102626.88;5030815;28;20025;-67
2022/08/06 04:37:18;;;;;;;5.50;2.10;;;;;;;9.38;77.60;102618.78;5043455;28;20041;-66
2022/08/06 04:39:44;;;;;;;2.92;2.10;;;;;;;9.36;77.71;102617.06;5041807;28;20374;-67
2022/08/06 04:42:10;;;;;;;2.47;1.70;;;;;;;9.34;77.96;102617.13;5045417;28;20045;-66
2022/08/06 04:44:36;;;;;;;4.55;2.45;;;;;;;9.34;77.59;102619.84;5035165;28;20554;-68
2022/08/06 04:47:02;;;;;;;5.53;2.28;;;;;;;9.36;77.71;102625.22;5041797;28;20579;-66
2022/08/06 04:49:29;;;;;;;6.03;2.10;;;;;;;9.35;77.48;102626.16;5044951;28;20037;-67
2022/08/06 04:51:54;;;;;;;2.05;1.67;;;;;;;9.35;77.80;102628.88;5059642;28;20041;-66
2022/08/06 04:54:20;;;;;;;6.18;1.95;;;;;;;9.38;78.21;102635.09;5033921;28;20060;-67
2022/08/06 04:56:46;;;;;;;3.53;1.90;;;;;;;9.39;77.59;102638.69;5025326;28;20369;-70
2022/08/06 04:59:11;;;;;;;3.88;2.22;;;;;;;9.43;77.41;102638.50;5014374;28;20031;-68
2022/08/06 05:01:37;;;;;;;5.00;1.88;;;;;;;9.45;77.52;102642.03;5031979;28;20079;-69
2022/08/06 05:04:03;;;;;;;2.85;1.80;;;;;;;9.45;77.96;102641.16;5024624;28;20033;-67
2022/08/06 05:06:50;;;;;;;7.60;2.10;;;;;;;9.47;78.37;102643.84;5042035;28;20044;-67
2022/08/06 05:09:23;;;;;;;4.80;2.25;;;;;;;9.48;78.27;102646.47;5040540;28;20041;-67
2022/08/06 05:12:01;;;;;;;3.08;2.05;;;;;;;9.49;78.39;102641.94;5041172;28;20499;-66
2022/08/06 05:14:42;;;;;;;7.65;2.35;;;;;;;9.54;77.86;102643.50;5034551;28;20049;-67
2022/08/06 05:17:13;;;;;;;3.53;2.30;;;;;;;9.62;78.23;102654.97;5031142;28;20548;-68
2022/08/06 05:19:46;;;;;;;5.43;2.20;;;;;;;9.67;78.06;102641.19;5024819;28;20037;-65
2022/08/06 05:22:15;;;;;;;5.10;2.33;;;;;;;9.76;78.25;102645.38;5040195;28;20037;-68
2022/08/06 05:24:41;;;;;;;4.25;2.35;;;;;;;9.82;78.53;102658.72;5041832;28;20037;-67
2022/08/06 05:27:09;;;;;;;6.90;2.38;;;;;;;9.85;78.48;102655.91;5059005;28;20039;-67
2022/08/06 05:29:34;;;;;;;3.45;1.65;;;;;;;9.90;78.33;102660.19;5051115;28;20064;-66
2022/08/06 05:32:01;;;;;;;4.93;2.22;;;;;;;9.95;77.91;102663.59;5040498;28;20037;-68
2022/08/06 05:34:27;;;;;;;4.50;1.98;;;;;;;10.00;78.27;102663.41;5044897;28;20127;-68
2022/08/06 05:36:52;;;;;;;3.38;1.85;;;;;;;10.04;78.25;102664.19;5044066;28;20043;-68
2022/08/06 05:39:19;;;;;;;7.03;1.88;;;;;;;10.11;77.74;102668.41;5038701;28;20041;-67
2022/08/06 05:41:45;;;;;;;7.43;2.58;;;;;;;10.19;78.13;102680.75;5028952;28;20037;-66
2022/08/06 05:44:11;;;;;;;2.58;2.28;;;;;;;10.26;78.52;102670.53;5042251;28;20625;-67
2022/08/06 05:46:41;;;;;;;6.30;2.20;;;;;;;10.36;78.46;102671.91;5033066;28;20110;-67
2022/08/06 05:49:14;;;;;;;3.97;2.00;;;;;;;10.47;78.24;102675.06;5037449;28;20473;-71
2022/08/06 05:51:49;;;;;;;7.18;2.78;;;;;;;10.57;79.35;102674.66;5037802;28;20033;-67
2022/08/06 05:54:27;;;;;;;5.50;2.33;;;;;;;10.67;79.62;102668.75;5024590;28;20034;-67
2022/08/06 05:57:11;;;;;;;3.40;2.13;;;;;;;10.70;79.98;102657.75;5017723;28;20094;-68
2022/08/06 05:59:41;;;;;;;5.45;2.70;;;;;;;10.88;79.99;102680.53;5039652;28;20039;-66
2022/08/06 06:02:09;;;;;;;6.60;3.00;;;;;;;10.97;80.11;102674.69;5026413;28;20120;-70
2022/08/06 06:04:35;;;;;;;4.28;3.10;;;;;;;11.08;79.66;102681.50;5024908;28;20033;-67
2022/08/06 06:07:01;;;;;;;4.80;2.75;;;;;;;11.16;79.55;102695.66;5022688;28;20382;-68
2022/08/06 06:09:28;;;;;;;8.90;3.83;;;;;;;11.18;80.25;102683.72;5024158;28;20059;-67
2022/08/06 06:11:54;;;;;;;7.80;4.13;;;;;;;11.31;80.61;102688.63;5023456;28;20048;-67
2022/08/06 06:14:29;;;;;;;7.03;3.45;;;;;;;11.38;81.65;102695.56;5037029;28;20558;-68
2022/08/06 06:17:22;;;;;;;8.98;3.20;;;;;;;11.47;79.82;102696.03;5031317;28;20049;-66
2022/08/06 06:20:15;;;;;;;4.85;3.42;;;;;;;11.58;80.16;102689.19;5033349;28;20040;-67
2022/08/06 06:22:58;;;;;;;6.72;3.85;;;;;;;11.69;81.98;102693.16;5047677;28;20033;-67
2022/08/06 06:25:30;;;;;;;7.70;4.05;;;;;;;11.78;81.92;102686.38;5035844;28;20038;-67
2022/08/06 06:28:14;;;;;;;7.55;3.90;;;;;;;11.87;83.12;102691.41;5028254;28;20061;-67
2022/08/06 06:30:47;;;;;;;10.75;4.10;;;;;;;11.95;81.67;102685.59;5027108;28;20091;-67
2022/08/06 06:33:22;;;;;;;9.25;5.05;;;;;;;12.06;83.29;102683.22;5029074;28;20514;-66
2022/08/06 06:35:54;;;;;;;8.88;4.80;;;;;;;12.15;83.56;102685.50;5027298;28;20633;-66
2022/08/06 06:38:25;;;;;;;6.13;4.20;;;;;;;12.21;80.00;102689.75;5027866;28;20507;-67
2022/08/06 06:40:53;;;;;;;12.35;6.57;;;;;;;12.32;83.28;102694.72;5046296;28;20559;-67
2022/08/06 06:43:40;;;;;;;15.07;7.90;;;;;;;12.40;81.14;102700.63;5043746;28;20048;-68
2022/08/06 06:46:17;;;;;;;20.13;10.40;;;;;;;12.49;81.53;102703.78;5042961;28;20528;-67
2022/08/06 06:48:46;;;;;;;26.92;13.25;;;;;;;12.63;83.58;102699.47;5031194;28;20497;-66
2022/08/06 06:51:27;;;;;;;25.42;12.40;;;;;;;12.75;82.71;102704.31;5044272;28;20102;-67
2022/08/06 06:53:54;;;;;;;22.80;12.73;;;;;;;12.87;83.36;102703.69;5042104;28;20552;-69
2022/08/06 06:56:24;;;;;;;22.13;11.52;;;;;;;12.98;82.92;102706.72;5040457;28;20430;-68
2022/08/06 06:58:55;;;;;;;22.77;8.63;;;;;;;13.13;82.85;102705.03;5055707;28;20021;-68
2022/08/06 07:01:21;;;;;;;24.65;10.90;;;;;;;13.27;82.90;102705.19;5043517;28;20045;-67
2022/08/06 07:03:49;;;;;;;20.60;10.50;;;;;;;13.43;82.21;102702.53;5023172;28;20051;-67
2022/08/06 07:06:16;;;;;;;15.48;7.47;;;;;;;13.54;81.98;102701.94;5039917;28;20154;-66
2022/08/06 07:08:47;;;;;;;12.25;5.25;;;;;;;13.64;82.02;102696.81;5039201;28;20461;-68
2022/08/06 07:11:19;;;;;;;7.85;4.57;;;;;;;13.78;80.15;102699.66;5040701;28;20037;-69
2022/08/06 07:13:46;;;;;;;8.35;3.45;;;;;;;13.92;78.94;102701.63;5050144;28;20569;-66
2022/08/06 07:16:15;;;;;;;7.97;3.13;;;;;;;14.04;79.70;102707.28;5041278;28;20507;-67
2022/08/06 07:18:43;;;;;;;9.13;3.10;;;;;;;14.15;79.54;102709.41;5042832;28;20029;-67
2022/08/06 07:21:11;;;;;;;8.07;3.10;;;;;;;14.24;79.45;102708.00;5044361;28;20079;-68
2022/08/06 07:23:36;;;;;;;8.32;2.70;;;;;;;14.39;79.11;102707.09;5042808;28;20111;-69
2022/08/06 07:26:04;;;;;;;7.30;3.13;;;;;;;14.48;78.00;102709.31;5045192;28;20111;-66
2022/08/06 07:28:31;;;;;;;8.60;2.20;;;;;;;14.51;77.97;102709.16;5042685;28;20380;-68
2022/08/06 07:30:58;;;;;;;4.63;1.75;;;;;;;14.58;75.43;102714.25;5047144;28;20396;-68
2022/08/06 07:33:24;;;;;;;5.85;2.53;;;;;;;14.67;74.29;102717.31;5041916;28;20028;-68
2022/08/06 07:35:51;;;;;;;5.85;1.38;;;;;;;14.77;72.78;102720.38;5040236;28;20017;-68
2022/08/06 07:38:19;;;;;;;8.00;1.45;;;;;;;14.85;73.39;102719.94;5043910;28;20057;-66
2022/08/06 07:40:50;;;;;;;3.10;1.40;;;;;;;14.92;72.87;102724.97;5028260;28;20116;-67
2022/08/06 07:43:30;;;;;;;4.88;1.00;;;;;;;14.98;71.49;102730.06;5042162;28;20052;-69
2022/08/06 07:45:57;;;;;;;6.13;1.10;;;;;;;15.05;70.61;102734.19;5025627;28;20037;-67
2022/08/06 07:48:28;;;;;;;7.07;1.10;;;;;;;15.11;72.54;102734.78;5026245;28;20029;-68
2022/08/06 07:50:55;;;;;;;4.10;1.13;;;;;;;15.16;71.50;102728.06;5043999;28;20041;-66
2022/08/06 07:53:21;;;;;;;4.60;0.90;;;;;;;15.23;71.11;102726.69;5043672;28;20063;-68
2022/08/06 07:55:47;;;;;;;2.75;0.90;;;;;;;15.32;71.72;102733.47;5045482;28;20044;-69
2022/08/06 07:58:14;;;;;;;4.93;1.23;;;;;;;15.43;70.96;102728.19;5044602;28;20033;-67
2022/08/06 08:00:41;;;;;;;5.22;1.48;;;;;;;15.55;68.61;102730.16;5037226;28;20091;-67
2022/08/06 08:08:38;;;;;;;1.70;0.77;;;;;;;16.85;65.12;102739.09;5043383;28;20041;-66
2022/08/06 08:11:06;;;;;;;7.57;1.08;;;;;;;17.60;66.74;102737.41;5044329;28;20031;-70
2022/08/06 08:13:33;;;;;;;4.78;1.27;;;;;;;18.30;62.46;102740.53;5043065;28;20047;-67
2022/08/06 08:15:59;;;;;;;6.63;1.02;;;;;;;18.97;59.99;102742.78;5039161;28;20084;-67
2022/08/06 08:18:31;;;;;;;3.67;1.10;;;;;;;19.52;59.82;102735.66;5024813;28;20142;-67
2022/08/06 08:20:59;;;;;;;7.07;1.23;;;;;;;19.92;54.20;102746.28;5035396;28;20056;-69
2022/08/06 08:23:26;;;;;;;3.45;0.88;;;;;;;20.42;56.15;102743.06;5025907;28;20555;-67
2022/08/06 08:25:51;;;;;;;3.22;1.27;;;;;;;20.25;52.83;102741.72;5033565;28;20120;-70
2022/08/06 08:28:17;;;;;;;2.05;0.70;;;;;;;19.71;54.25;102743.38;5041661;28;20031;-68
2022/08/06 08:30:44;;;;;;;5.93;1.40;;;;;;;19.80;56.55;102745.38;5024488;28;20040;-67
2022/08/06 08:33:09;;;;;;;4.28;1.00;;;;;;;20.56;56.75;102729.88;5037796;28;20571;-68
2022/08/06 08:35:35;;;;;;;7.10;0.80;;;;;;;21.06;50.48;102741.22;5036359;28;20120;-68
2022/08/06 08:38:00;;;;;;;4.40;0.88;;;;;;;21.14;51.23;102741.44;5041108;28;20597;-70
2022/08/06 08:40:28;;;;;;;4.15;1.02;;;;;;;21.76;50.73;102733.25;5044005;28;20511;-66
2022/08/06 08:42:58;;;;;;;6.55;1.13;;;;;;;22.04;51.48;102732.50;5045486;28;20136;-67
2022/08/06 08:45:24;;;;;;;4.70;1.00;;;;;;;22.20;49.46;102736.72;5041221;28;20092;-67
2022/08/06 08:47:51;;;;;;;4.78;0.80;;;;;;;22.80;48.09;102731.97;5032358;28;20033;-68
2022/08/06 08:50:19;;;;;;;2.00;0.70;;;;;;;22.64;43.63;102738.97;5039087;28;20041;-68
2022/08/06 08:52:48;;;;;;;2.30;0.85;;;;;;;23.10;47.51;102734.66;5035802;28;20029;-67
2022/08/06 08:55:21;;;;;;;3.22;0.68;;;;;;;23.30;42.58;102738.28;5039569;28;20628;-67
2022/08/06 08:57:46;;;;;;;3.35;0.65;;;;;;;22.61;43.07;102744.81;5038992;28;20041;-67
2022/08/06 09:00:12;;;;;;;9.77;0.93;;;;;;;22.13;42.38;102740.03;5041054;28;20485;-67
2022/08/06 09:02:39;;;;;;;1.60;0.80;;;;;;;22.36;45.45;102739.81;5030229;28;20029;-67
2022/08/06 09:05:05;;;;;;;2.40;0.60;;;;;;;22.96;45.45;102740.66;5043593;28;20028;-67
2022/08/06 09:07:31;;;;;;;3.22;0.98;;;;;;;22.95;40.40;102741.69;5038438;28;20190;-66
2022/08/06 09:09:58;;;;;;;2.42;0.80;;;;;;;22.99;44.44;102745.91;5036196;28;20049;-66
2022/08/06 09:12:24;;;;;;;2.47;1.25;;;;;;;22.90;43.13;102746.78;5039986;28;20541;-67
2022/08/06 09:14:50;;;;;;;4.97;0.68;;;;;;;22.70;41.84;102747.75;5039110;28;20120;-66
2022/08/06 09:17:16;;;;;;;2.70;0.90;;;;;;;22.93;42.44;102746.47;5033130;28;20071;-67
2022/08/06 09:19:42;;;;;;;2.92;0.73;;;;;;;22.54;39.27;102753.88;5025070;28;20160;-68
2022/08/06 09:22:08;;;;;;;1.75;0.80;;;;;;;22.72;40.84;102745.72;5024316;28;20127;-67
2022/08/06 09:24:34;;;;;;;3.30;0.73;;;;;;;22.86;39.35;102746.16;5025426;28;20497;-67
2022/08/06 09:27:09;;;;;;;2.55;0.60;;;;;;;23.05;37.55;102750.88;5025473;28;20099;-68
2022/08/06 09:29:47;;;;;;;3.75;0.82;;;;;;;23.16;44.10;102756.25;5025370;28;20437;-68
2022/08/06 09:32:12;;;;;;;3.17;1.00;;;;;;;23.08;39.46;102750.59;5027069;28;20413;-66
2022/08/06 09:34:39;;;;;;;2.97;0.85;;;;;;;23.55;42.89;102752.53;5024967;28;20044;-66
2022/08/06 09:37:05;;;;;;;1.60;0.60;;;;;;;24.01;41.42;102748.91;5024533;28;20030;-67
2022/08/06 09:39:35;;;;;;;3.03;0.70;;;;;;;24.74;42.43;102751.75;5024780;28;20488;-66
2022/08/06 09:42:00;;;;;;;3.03;0.90;;;;;;;24.92;41.61;102754.56;5025068;28;20037;-66
2022/08/06 09:44:26;;;;;;;5.82;1.02;;;;;;;23.83;38.23;102756.34;5032810;28;20831;-67
2022/08/06 09:46:52;;;;;;;3.53;1.27;;;;;;;22.74;39.68;102758.41;5031853;28;20056;-67
2022/08/06 09:49:18;;;;;;;2.45;0.73;;;;;;;22.47;44.66;102755.44;5028997;28;20489;-66
2022/08/06 09:51:44;;;;;;;5.22;1.27;;;;;;;22.30;39.54;102755.13;5027852;28;20119;-66
2022/08/06 09:54:15;;;;;;;2.28;0.65;;;;;;;22.35;40.71;102751.91;5028937;28;20505;-66
2022/08/06 09:56:44;;;;;;;3.13;0.73;;;;;;;22.48;42.35;102755.31;5028157;28;20025;-67
2022/08/06 09:59:11;;;;;;;2.95;1.00;;;;;;;23.07;41.26;102753.50;5028338;28;20036;-67
2022/08/06 10:01:45;;;;;;;2.97;0.70;;;;;;;23.06;39.42;102760.94;5027669;28;20041;-68
2022/08/06 10:04:23;;;;;;;1.65;0.57;;;;;;;23.49;41.99;102750.38;5028784;28;20041;-67
2022/08/06 10:06:54;;;;;;;3.97;0.82;;;;;;;23.64;38.82;102760.00;5027871;28;20037;-68
2022/08/06 10:09:20;;;;;;;1.95;0.93;;;;;;;23.85;40.18;102762.59;5028279;28;20049;-66
2022/08/06 10:11:45;;;;;;;5.07;0.73;;;;;;;24.12;39.71;102747.88;5028631;28;20032;-67
2022/08/06 10:14:22;;;;;;;3.67;0.73;;;;;;;24.32;41.94;102751.41;5034420;28;20041;-66
2022/08/06 10:17:15;;;;;;;1.60;0.55;;;;;;;23.96;39.67;102762.41;5035675;28;20124;-66
2022/08/06 10:19:43;;;;;;;1.00;0.60;;;;;;;23.33;39.96;102756.56;5032343;28;20047;-65
2022/08/06 10:22:12;;;;;;;2.03;0.73;;;;;;;23.31;39.12;102751.13;5047928;28;20511;-66
2022/08/06 10:24:42;;;;;;;0.95;0.50;;;;;;;23.46;38.59;102747.91;5048169;28;20048;-67
2022/08/06 10:27:13;;;;;;;2.65;0.50;;;;;;;23.23;36.25;102745.47;5039306;28;20030;-66
2022/08/06 10:30:00;;;;;;;4.47;0.50;;;;;;;23.40;38.45;102741.91;5027854;28;20029;-66
2022/08/06 10:32:31;;;;;;;1.75;0.60;;;;;;;23.95;36.84;102737.53;5027132;28;20111;-67
2022/08/06 10:35:01;;;;;;;1.10;0.60;;;;;;;23.78;35.44;102733.66;5027944;28;20737;-67
2022/08/06 10:37:27;;;;;;;1.25;0.60;;;;;;;24.18;36.71;102728.63;5027619;28;20045;-66
2022/08/06 10:39:59;;;;;;;3.47;0.60;;;;;;;24.86;37.50;102731.00;5027526;28;20068;-65
2022/08/06 10:42:25;;;;;;;2.30;0.63;;;;;;;24.69;35.32;102726.31;5026912;28;20037;-67
2022/08/06 10:44:52;;;;;;;3.72;0.85;;;;;;;24.72;35.41;102727.91;5039446;28;20083;-67
2022/08/06 10:47:17;;;;;;;3.72;0.68;;;;;;;24.55;33.89;102736.06;5031316;28;20041;-68
2022/08/06 10:49:44;;;;;;;2.53;0.52;;;;;;;24.69;38.32;102726.31;5027651;28;20021;-66
2022/08/06 10:52:11;;;;;;;1.95;0.60;;;;;;;24.35;36.57;102732.50;5042671;28;20042;-66
2022/08/06 10:54:37;;;;;;;1.15;0.50;;;;;;;24.45;35.18;102720.47;5027253;28;20038;-69
2022/08/06 10:57:03;;;;;;;1.33;0.57;;;;;;;24.93;37.90;102725.66;5028185;28;20017;-66
2022/08/06 10:59:28;;;;;;;1.27;0.60;;;;;;;25.75;34.44;102718.84;5026047;28;20875;-69
2022/08/06 11:02:04;;;;;;;5.40;0.95;;;;;;;25.50;34.84;102722.50;5026470;28;20534;-66
2022/08/06 11:04:41;;;;;;;2.30;0.80;;;;;;;25.82;36.04;102724.66;5027533;28;20090;-66
2022/08/06 11:07:30;;;;;;;2.50;0.70;;;;;;;26.05;35.13;102725.81;5027905;28;20530;-67
2022/08/06 11:10:27;;;;;;;1.65;0.50;;;;;;;26.04;35.35;102720.41;5027966;28;20500;-67
2022/08/06 11:13:16;;;;;;;1.70;0.70;;;;;;;26.38;34.81;102712.84;5037756;28;20041;-66
2022/08/06 11:15:43;;;;;;;2.08;0.63;;;;;;;26.35;31.61;102717.94;5042545;28;20534;-68
2022/08/06 11:18:11;;;;;;;1.30;0.60;;;;;;;26.50;33.01;102716.25;5027123;28;20045;-70
2022/08/06 11:20:41;;;;;;;2.25;0.60;;;;;;;26.19;33.48;102713.13;5026392;28;20029;-68
2022/08/06 11:23:13;;;;;;;1.98;0.70;;;;;;;25.78;34.06;102717.66;5026719;28;20482;-70
2022/08/06 11:25:47;;;;;;;3.72;0.80;;;;;;;25.53;35.79;102716.59;5027359;28;20087;-66
2022/08/06 11:28:20;;;;;;;2.33;0.52;;;;;;;25.37;35.04;102715.47;5026947;28;20374;-70
2022/08/06 11:30:53;;;;;;;1.77;0.60;;;;;;;25.69;35.30;102713.91;5028217;28;20055;-69
2022/08/06 11:33:40;;;;;;;3.05;0.68;;;;;;;26.18;33.51;102711.41;5026881;28;20095;-66
2022/08/06 11:36:23;;;;;;;2.05;0.70;;;;;;;26.44;31.01;102701.06;5026548;28;20124;-66
2022/08/06 11:38:54;;;;;;;1.40;0.55;;;;;;;26.07;30.59;102703.34;5025320;28;20095;-67
2022/08/06 11:41:24;;;;;;;3.47;0.63;;;;;;;25.66;30.25;102698.41;5026478;28;20064;-68
2022/08/06 11:43:53;;;;;;;2.83;0.50;;;;;;;25.27;31.28;102702.66;5030180;28;20064;-66